Terminal Aerodrome Forecast
Issued by NWS

Home | Current Version | Previous Version | Graphics & Text | Print | Product List | Glossary On
Versions: 1 2 3 4 5 6 7 8 9 10 11 12 13 14 15 16 17 18 19 20 21 22 23
000
FTUS45 KGGW 182300
TAFOLF
TAF
KOLF 182320Z 1900/1924 24008KT P6SM BKN110
     FM190600 VRB06KT P6SM VCSH SCT100
     FM191500 27012KT P6SM SCT110=

USA.gov is the U.S. government's official web portal to all federal, state and local government web resources and services.